createdAt,value
2019-02-04T00:03:52.626Z,73.15
2019-02-04T00:06:20.817Z,73.29
2019-02-04T00:08:49.010Z,73.47
2019-02-04T00:11:17.207Z,73.58
2019-02-04T00:13:45.391Z,73.83
2019-02-04T00:16:13.598Z,74.10
2019-02-04T00:18:43.502Z,73.94
2019-02-04T00:21:11.702Z,73.75
2019-02-04T00:23:39.892Z,73.56
2019-02-04T00:26:08.099Z,73.53
2019-02-04T00:28:36.277Z,73.54
2019-02-04T00:31:05.229Z,73.78
2019-02-04T00:33:34.381Z,73.74
2019-02-04T00:36:02.587Z,73.71
2019-02-04T00:38:30.780Z,73.68
2019-02-04T00:40:58.970Z,73.75
2019-02-04T00:43:27.161Z,73.81
2019-02-04T00:45:55.349Z,73.90
2019-02-04T00:48:23.559Z,73.79
2019-02-04T00:50:51.823Z,73.76
2019-02-04T00:53:39.464Z,73.70
2019-02-04T00:56:07.647Z,73.78
2019-02-04T00:58:35.836Z,73.82
2019-02-04T01:03:58.242Z,73.60
2019-02-04T01:09:00.808Z,73.59
2019-02-04T01:11:30.748Z,73.60
2019-02-04T01:13:58.941Z,73.63
2019-02-04T01:16:27.130Z,73.65
2019-02-04T01:18:55.322Z,73.55
2019-02-04T01:21:23.503Z,73.46
2019-02-04T01:26:46.108Z,73.44
2019-02-04T01:29:14.290Z,73.54
2019-02-04T01:31:42.472Z,73.80
2019-02-04T01:34:10.666Z,74.19
2019-02-04T01:36:39.035Z,74.13
2019-02-04T01:39:47.344Z,73.85
2019-02-04T01:42:15.549Z,74.10
2019-02-04T01:44:43.731Z,73.95
2019-02-04T01:47:14.734Z,73.69
2019-02-04T01:49:41.844Z,73.69
2019-02-04T01:52:10.071Z,73.70
2019-02-04T01:54:38.228Z,73.53
2019-02-04T01:57:06.417Z,73.63
2019-02-04T01:59:34.619Z,73.58
2019-02-04T02:02:02.804Z,73.67
2019-02-04T02:04:31.114Z,73.70
2019-02-04T02:06:59.271Z,73.79
2019-02-04T02:09:27.474Z,74.10
2019-02-04T02:11:55.656Z,73.73
2019-02-04T02:14:25.578Z,73.60
2019-02-04T02:16:53.762Z,73.83
2019-02-04T02:19:41.386Z,73.91
2019-02-04T02:22:09.579Z,73.98
2019-02-04T02:24:39.552Z,74.38
2019-02-04T02:27:07.741Z,74.34
2019-02-04T02:29:35.940Z,74.42
2019-02-04T02:32:04.128Z,74.59
2019-02-04T02:34:32.327Z,74.68
2019-02-04T02:37:00.513Z,74.59
2019-02-04T02:39:28.715Z,74.56
2019-02-04T02:41:56.905Z,74.56
2019-02-04T02:44:25.099Z,74.45
2019-02-04T02:46:53.285Z,74.45
2019-02-04T02:49:21.482Z,74.43
2019-02-04T02:51:49.668Z,74.43
2019-02-04T02:54:17.873Z,74.40
2019-02-04T02:56:47.789Z,74.28
2019-02-04T02:59:15.985Z,74.35
2019-02-04T03:01:44.165Z,74.35
2019-02-04T03:04:12.376Z,74.44
2019-02-04T03:06:40.562Z,74.50
2019-02-04T03:09:08.766Z,74.44
2019-02-04T03:11:38.684Z,74.44
2019-02-04T03:14:06.859Z,74.41
2019-02-04T03:16:35.046Z,74.42
2019-02-04T03:19:03.263Z,74.35
2019-02-04T03:21:31.451Z,74.37
2019-02-04T03:24:00.794Z,74.22
2019-02-04T03:26:29.541Z,74.40
2019-02-04T03:28:57.740Z,74.52
2019-02-04T03:31:25.936Z,74.58
2019-02-04T03:33:54.142Z,74.52
2019-02-04T03:36:22.333Z,74.51
2019-02-04T03:38:50.515Z,74.58
2019-02-04T03:41:18.715Z,74.61
2019-02-04T03:43:46.926Z,74.63
2019-02-04T03:46:15.101Z,74.57
2019-02-04T03:48:43.292Z,74.65
2019-02-04T03:51:11.488Z,74.71
2019-02-04T03:53:39.671Z,74.76
2019-02-04T03:56:07.870Z,74.72
2019-02-04T03:58:36.125Z,74.77
2019-02-04T04:01:04.334Z,74.72
2019-02-04T04:03:32.517Z,74.70
2019-02-04T04:06:00.722Z,74.72
2019-02-04T04:08:28.983Z,74.66
2019-02-04T04:10:57.196Z,74.53
2019-02-04T04:13:27.105Z,74.60
2019-02-04T04:15:55.313Z,74.62
2019-02-04T04:18:23.486Z,74.60
2019-02-04T04:20:51.691Z,74.67
2019-02-04T04:23:19.882Z,74.76
2019-02-04T04:25:48.085Z,74.83
2019-02-04T04:28:16.261Z,74.89
2019-02-04T04:30:44.453Z,74.86
2019-02-04T04:33:12.644Z,74.89
2019-02-04T04:35:40.846Z,74.90
2019-02-04T04:38:09.031Z,74.83
2019-02-04T04:40:37.223Z,74.93
2019-02-04T04:43:05.410Z,74.95
2019-02-04T04:45:35.324Z,74.85
2019-02-04T04:48:03.503Z,74.77
2019-02-04T04:50:31.712Z,74.92
2019-02-04T04:52:59.892Z,74.96
2019-02-04T04:55:28.092Z,75.03
2019-02-04T04:57:56.280Z,75.09
2019-02-04T05:03:27.074Z,75.17
2019-02-04T05:05:55.268Z,75.21
2019-02-04T05:08:23.465Z,75.29
2019-02-04T05:10:51.664Z,75.40
2019-02-04T05:13:19.845Z,75.39
2019-02-04T05:15:48.039Z,75.20
2019-02-04T05:18:16.235Z,75.23
2019-02-04T05:20:44.460Z,75.28
2019-02-04T05:23:12.638Z,75.28
2019-02-04T05:25:40.839Z,75.30
2019-02-04T05:28:09.021Z,75.29
2019-02-04T05:30:37.208Z,75.35
2019-02-04T05:33:05.412Z,75.32
2019-02-04T05:35:33.592Z,75.26
2019-02-04T05:38:01.792Z,75.39
2019-02-04T05:40:31.712Z,75.45
2019-02-04T05:42:59.985Z,75.49
2019-02-04T05:45:28.175Z,75.48
2019-02-04T05:47:56.377Z,75.53
2019-02-04T05:50:24.563Z,75.58
2019-02-04T05:52:52.763Z,75.57
2019-02-04T05:58:36.394Z,75.75
2019-02-04T06:01:06.299Z,75.75
2019-02-04T06:03:34.496Z,75.80
2019-02-04T06:06:02.677Z,75.77
2019-02-04T06:08:30.872Z,75.85
2019-02-04T06:10:59.055Z,75.78
2019-02-04T06:13:27.251Z,75.69
2019-02-04T06:15:55.435Z,75.56
2019-02-04T06:18:23.628Z,75.53
2019-02-04T06:20:51.820Z,75.38
2019-02-04T06:23:20.056Z,75.12
2019-02-04T06:25:48.220Z,75.11
2019-02-04T06:28:16.410Z,75.01
2019-02-04T06:30:44.590Z,74.91
2019-02-04T06:33:12.932Z,74.94
2019-02-04T06:35:41.111Z,74.66
2019-02-04T06:38:09.311Z,74.41
2019-02-04T06:40:37.498Z,76.38
2019-02-04T06:43:05.693Z,75.03
2019-02-04T06:45:33.876Z,74.32
2019-02-04T06:48:21.506Z,73.56
2019-02-04T06:50:51.043Z,73.36
2019-02-04T06:53:19.621Z,73.16
2019-02-04T06:55:47.807Z,72.87
2019-02-04T06:58:15.996Z,72.87
2019-02-04T07:00:44.376Z,72.79
2019-02-04T07:03:12.553Z,72.46
2019-02-04T07:05:43.966Z,72.34
2019-02-04T07:08:10.652Z,71.99
2019-02-04T07:10:38.844Z,71.97
2019-02-04T07:13:07.050Z,72.41
2019-02-04T07:15:35.314Z,76.54
2019-02-04T07:18:03.499Z,77.32
2019-02-04T07:20:31.694Z,77.67
2019-02-04T07:22:59.887Z,78.31
2019-02-04T07:25:28.091Z,75.83
2019-02-04T07:27:56.290Z,76.30
2019-02-04T07:31:04.608Z,75.57
2019-02-04T07:33:32.800Z,72.82
2019-02-04T07:36:03.338Z,73.80
2019-02-04T07:38:30.911Z,72.01
2019-02-04T07:40:59.113Z,72.06
2019-02-04T07:43:27.314Z,71.82
2019-02-04T07:45:55.524Z,73.83
2019-02-04T07:48:23.705Z,74.48
2019-02-04T07:50:51.894Z,73.01
2019-02-04T07:53:39.213Z,72.67
2019-02-04T07:56:07.403Z,70.46
2019-02-04T07:58:35.608Z,69.91
2019-02-04T08:01:03.802Z,69.94
2019-02-04T08:03:31.999Z,70.52
2019-02-04T08:06:00.184Z,69.46
2019-02-04T08:08:28.560Z,68.67
2019-02-04T08:10:56.749Z,69.13
2019-02-04T08:13:44.058Z,68.10
2019-02-04T08:16:12.244Z,68.43
2019-02-04T08:18:40.441Z,68.60
2019-02-04T08:21:08.622Z,68.51
2019-02-04T08:23:36.837Z,68.65
2019-02-04T08:26:05.030Z,68.41
2019-02-04T08:28:33.232Z,67.68
2019-02-04T08:31:01.416Z,67.85
2019-02-04T08:33:29.613Z,67.46
2019-02-04T08:35:59.529Z,67.54
2019-02-04T08:38:27.743Z,67.17
2019-02-04T08:40:55.928Z,66.95
2019-02-04T08:43:24.121Z,67.19
2019-02-04T08:45:52.302Z,67.59
2019-02-04T08:49:00.606Z,67.01
2019-02-04T08:51:28.793Z,66.26
2019-02-04T08:53:57.125Z,66.53
2019-02-04T08:56:25.260Z,66.23
2019-02-04T08:58:53.491Z,65.85
2019-02-04T09:01:23.398Z,65.91
2019-02-04T09:03:51.583Z,65.43
2019-02-04T09:06:19.783Z,65.97
2019-02-04T09:08:47.972Z,65.34
2019-02-04T09:11:16.177Z,65.21
2019-02-04T09:13:44.362Z,65.34
2019-02-04T09:16:31.995Z,65.58
2019-02-04T09:19:00.189Z,64.93
2019-02-04T09:21:28.400Z,64.50
2019-02-04T09:23:56.585Z,64.28
2019-02-04T09:26:24.787Z,64.39
2019-02-04T09:28:52.982Z,64.48
2019-02-04T09:31:21.215Z,63.94
2019-02-04T09:33:49.392Z,63.05
2019-02-04T09:36:17.590Z,63.42
2019-02-04T09:38:45.778Z,63.37
2019-02-04T09:41:13.985Z,62.63
2019-02-04T09:43:42.179Z,62.90
2019-02-04T09:46:10.370Z,61.99
2019-02-04T09:48:38.558Z,62.14
2019-02-04T09:51:06.761Z,61.74
2019-02-04T09:53:34.955Z,61.50
2019-02-04T09:56:03.160Z,61.90
2019-02-04T09:58:31.357Z,61.71
2019-02-04T10:00:59.571Z,61.62
2019-02-04T10:03:29.483Z,62.10
2019-02-04T10:05:57.689Z,61.60
2019-02-04T10:08:25.881Z,61.78
2019-02-04T10:10:54.087Z,60.90
2019-02-04T10:13:22.287Z,61.05
2019-02-04T10:15:50.526Z,60.69
2019-02-04T10:18:20.402Z,61.21
2019-02-04T10:20:48.620Z,61.07
2019-02-04T10:23:16.807Z,61.03
2019-02-04T10:25:45.011Z,60.70
2019-02-04T10:28:53.323Z,60.33
2019-02-04T10:31:21.549Z,60.42
2019-02-04T10:33:49.714Z,60.29
2019-02-04T10:36:17.915Z,60.29
2019-02-04T10:38:46.096Z,60.28
2019-02-04T10:41:16.061Z,59.69
2019-02-04T10:43:44.229Z,59.27
2019-02-04T10:46:12.418Z,59.30
2019-02-04T10:48:40.605Z,58.96
2019-02-04T10:51:08.814Z,59.22
2019-02-04T10:53:37.027Z,59.27
2019-02-04T10:56:05.190Z,58.98
2019-02-04T10:58:33.375Z,58.80
2019-02-04T11:01:01.597Z,58.83
2019-02-04T11:03:29.813Z,58.70
2019-02-04T11:06:17.150Z,58.36
2019-02-04T11:08:45.375Z,58.20
2019-02-04T11:11:13.520Z,58.34
2019-02-04T11:13:41.737Z,58.13
2019-02-04T11:16:09.945Z,58.30
2019-02-04T11:18:38.122Z,58.39
2019-02-04T11:21:25.771Z,58.47
2019-02-04T11:24:13.313Z,58.62
2019-02-04T11:27:00.873Z,58.93
2019-02-04T11:29:30.792Z,59.22
2019-02-04T11:31:58.991Z,59.36
2019-02-04T11:34:27.215Z,59.61
2019-02-04T11:36:55.404Z,59.88
2019-02-04T11:39:23.571Z,77.87
2019-02-04T11:41:51.760Z,63.80
2019-02-04T11:44:21.738Z,60.09
2019-02-04T11:46:49.983Z,59.57
2019-02-04T11:49:37.257Z,59.90
2019-02-04T11:54:52.708Z,59.91
2019-02-04T11:57:28.394Z,60.05
2019-02-04T12:02:34.669Z,60.20
2019-02-04T12:05:00.765Z,60.11
2019-02-04T12:07:28.956Z,59.77
2019-02-04T12:09:57.146Z,59.98
2019-02-04T12:12:25.337Z,60.08
2019-02-04T12:14:53.541Z,59.79
2019-02-04T12:17:41.085Z,59.59
2019-02-04T12:20:49.436Z,59.73
2019-02-04T12:23:19.337Z,59.15
2019-02-04T12:26:00.015Z,59.35
2019-02-04T12:28:28.210Z,59.24
2019-02-04T12:30:56.412Z,59.03
2019-02-04T12:36:11.838Z,58.98
2019-02-04T12:38:40.023Z,59.10
2019-02-04T12:41:08.225Z,58.67
2019-02-04T12:43:55.777Z,58.72
2019-02-04T12:48:58.078Z,58.46
2019-02-04T12:51:33.238Z,58.30
2019-02-04T12:53:56.183Z,57.93
2019-02-04T12:56:24.389Z,57.81
2019-02-04T12:58:55.726Z,57.56
2019-02-04T13:01:24.303Z,57.54
2019-02-04T13:03:52.483Z,57.62
2019-02-04T13:06:20.689Z,57.28
2019-02-04T13:08:48.877Z,57.23
2019-02-04T13:11:17.074Z,56.91
2019-02-04T13:13:45.374Z,56.97
2019-02-04T13:16:13.533Z,56.88
2019-02-04T13:18:41.723Z,56.75
2019-02-04T13:21:09.927Z,56.85
2019-02-04T13:23:38.119Z,56.89
2019-02-04T13:26:06.317Z,56.63
2019-02-04T13:28:34.504Z,56.68
2019-02-04T13:31:04.419Z,56.80
2019-02-04T13:33:32.615Z,56.59
2019-02-04T13:36:00.826Z,56.71
2019-02-04T13:38:29.014Z,56.49
2019-02-04T13:41:07.516Z,56.61
2019-02-04T13:43:27.120Z,56.68
2019-02-04T13:46:16.508Z,56.53
2019-02-04T13:48:44.659Z,56.74
2019-02-04T13:51:12.867Z,56.37
2019-02-04T13:53:41.055Z,56.74
2019-02-04T13:56:09.254Z,56.71
2019-02-04T13:58:59.187Z,56.73
2019-02-04T14:01:27.381Z,56.93
2019-02-04T14:03:55.566Z,56.52
2019-02-04T14:06:23.764Z,56.80
2019-02-04T14:09:11.312Z,56.45
2019-02-04T14:11:39.515Z,56.52
2019-02-04T14:14:07.704Z,56.63
2019-02-04T14:16:35.908Z,56.57
2019-02-04T14:19:05.831Z,56.48
2019-02-04T14:21:34.027Z,56.40
2019-02-04T14:24:02.209Z,56.22
2019-02-04T14:26:30.418Z,55.83
2019-02-04T14:31:52.279Z,55.75
2019-02-04T14:34:20.464Z,55.11
2019-02-04T14:36:48.670Z,54.91
2019-02-04T14:39:16.860Z,54.88
2019-02-04T14:41:45.048Z,55.06
2019-02-04T14:44:55.070Z,54.46
2019-02-04T14:48:06.028Z,54.75
2019-02-04T14:54:37.409Z,54.63
2019-02-04T15:03:37.289Z,54.15
2019-02-04T15:06:45.603Z,54.18
2019-02-04T15:09:52.611Z,54.24
2019-02-04T15:19:14.964Z,54.20
2019-02-04T15:22:32.806Z,53.93
2019-02-04T15:25:32.017Z,54.21
2019-02-04T15:28:39.009Z,54.23
2019-02-04T15:31:46.008Z,54.31
2019-02-04T15:35:03.863Z,54.11
2019-02-04T15:38:01.811Z,54.12
2019-02-04T15:41:10.163Z,54.09
2019-02-04T15:44:11.328Z,54.16
2019-02-04T15:47:18.307Z,53.71
2019-02-04T15:50:25.310Z,54.25
2019-02-04T15:52:53.498Z,54.15
2019-02-04T15:55:21.705Z,53.68
2019-02-04T15:57:49.894Z,53.74
2019-02-04T16:00:18.094Z,53.66
2019-02-04T16:02:46.280Z,53.85
2019-02-04T16:05:14.483Z,53.70
2019-02-04T16:08:22.781Z,53.86
2019-02-04T16:10:50.991Z,53.68
2019-02-04T16:13:19.179Z,53.57
2019-02-04T16:15:47.399Z,53.40
2019-02-04T16:18:15.587Z,53.64
2019-02-04T16:21:03.152Z,53.59
2019-02-04T16:23:31.338Z,53.06
2019-02-04T16:25:59.620Z,53.23
2019-02-04T16:28:27.793Z,53.31
2019-02-04T16:30:55.985Z,53.24
2019-02-04T16:33:24.168Z,53.57
2019-02-04T16:35:52.369Z,53.37
2019-02-04T16:38:20.544Z,52.95
2019-02-04T16:40:48.740Z,53.07
2019-02-04T16:43:17.003Z,52.99
2019-02-04T16:45:45.195Z,53.26
2019-02-04T16:48:13.393Z,53.28
2019-02-04T16:51:21.711Z,53.27
2019-02-04T16:53:49.888Z,53.30
2019-02-04T16:56:58.199Z,53.61
2019-02-04T16:59:26.459Z,53.63
2019-02-04T17:01:54.651Z,53.65
2019-02-04T17:04:22.834Z,53.72
2019-02-04T17:06:51.030Z,53.74
2019-02-04T17:09:19.226Z,53.74
2019-02-04T17:11:47.424Z,53.74
2019-02-04T17:14:17.329Z,53.75
2019-02-04T17:16:45.536Z,53.99
2019-02-04T17:19:13.717Z,54.12
2019-02-04T17:21:41.919Z,53.87
2019-02-04T17:24:10.118Z,53.98
2019-02-04T17:26:38.313Z,53.98
2019-02-04T17:29:06.496Z,53.89
2019-02-04T17:31:34.690Z,54.05
2019-02-04T17:34:02.866Z,53.78
2019-02-04T17:36:31.083Z,53.98
2019-02-04T17:38:59.289Z,53.80
2019-02-04T17:41:27.469Z,53.61
2019-02-04T17:43:55.666Z,53.69
2019-02-04T17:46:25.566Z,53.55
2019-02-04T17:48:53.795Z,53.59
2019-02-04T17:51:21.982Z,53.66
2019-02-04T17:53:50.182Z,53.67
2019-02-04T17:56:18.361Z,53.80
2019-02-04T17:58:46.624Z,54.00
2019-02-04T18:04:03.690Z,54.77
2019-02-04T18:06:31.912Z,54.89
2019-02-04T18:09:00.104Z,55.30
2019-02-04T18:11:28.277Z,55.36
2019-02-04T18:13:56.702Z,55.60
2019-02-04T18:16:24.835Z,55.36
2019-02-04T18:18:53.026Z,55.41
2019-02-04T18:21:21.210Z,55.41
2019-02-04T18:23:49.413Z,54.99
2019-02-04T18:26:17.727Z,55.00
2019-02-04T18:28:47.913Z,54.99
2019-02-04T18:31:17.438Z,54.72
2019-02-04T18:33:45.642Z,54.74
2019-02-04T18:36:13.822Z,54.87
2019-02-04T18:39:01.138Z,55.05
2019-02-04T18:41:29.332Z,54.86
2019-02-04T18:43:57.520Z,54.71
2019-02-04T18:46:27.431Z,54.92
2019-02-04T18:48:55.626Z,54.78
2019-02-04T18:51:23.812Z,54.91
2019-02-04T18:53:57.955Z,55.13
2019-02-04T18:56:21.931Z,55.40
2019-02-04T18:58:50.128Z,55.56
2019-02-04T19:01:18.313Z,55.72
2019-02-04T19:03:46.495Z,55.84
2019-02-04T19:06:14.696Z,56.03
2019-02-04T19:08:42.879Z,56.19
2019-02-04T19:11:11.081Z,56.35
2019-02-04T19:13:58.677Z,56.38
2019-02-04T19:16:26.880Z,56.41
2019-02-04T19:21:42.296Z,56.81
2019-02-04T19:24:10.513Z,56.81
2019-02-04T19:26:38.694Z,57.00
2019-02-04T19:29:06.885Z,56.96
2019-02-04T19:31:35.087Z,57.02
2019-02-04T19:36:52.307Z,57.08
2019-02-04T19:39:20.494Z,57.15
2019-02-04T19:41:48.703Z,57.20
2019-02-04T19:44:16.897Z,57.36
2019-02-04T19:46:45.101Z,57.37
2019-02-04T19:49:13.277Z,57.53
2019-02-04T19:51:41.486Z,57.38
2019-02-04T19:54:20.943Z,57.45
2019-02-04T19:56:39.590Z,57.49
2019-02-04T19:59:07.779Z,57.61
2019-02-04T20:01:37.722Z,57.67
2019-02-04T20:04:05.904Z,57.75
2019-02-04T20:06:34.107Z,57.73
2019-02-04T20:09:21.657Z,58.02
2019-02-04T20:11:49.848Z,57.86
2019-02-04T20:14:19.759Z,58.02
2019-02-04T20:17:07.323Z,58.13
2019-02-04T20:19:35.505Z,58.18
2019-02-04T20:22:03.701Z,58.38
2019-02-04T20:24:33.454Z,58.50
2019-02-04T20:27:01.803Z,58.64
2019-02-04T20:32:17.239Z,58.96
2019-02-04T20:34:45.437Z,59.27
2019-02-04T20:37:15.366Z,59.33
2019-02-04T20:39:43.544Z,59.70
2019-02-04T20:42:31.112Z,59.71
2019-02-04T20:44:59.299Z,59.53
2019-02-04T20:47:46.613Z,59.88
2019-02-04T20:50:53.593Z,60.25
2019-02-04T20:53:22.167Z,60.09
2019-02-04T20:55:50.358Z,60.25
2019-02-04T20:58:18.555Z,60.12
2019-02-04T21:00:46.748Z,60.08
2019-02-04T21:03:14.944Z,60.11
2019-02-04T21:06:02.488Z,59.96
2019-02-04T21:08:30.692Z,59.99
2019-02-04T21:11:17.999Z,60.15
2019-02-04T21:13:46.194Z,60.21
2019-02-04T21:16:14.383Z,60.20
2019-02-04T21:18:44.318Z,60.49
2019-02-04T21:21:12.514Z,60.43
2019-02-04T21:23:40.711Z,60.47
2019-02-04T21:26:08.918Z,60.72
2019-02-04T21:28:37.118Z,60.88
2019-02-04T21:31:05.309Z,61.14
2019-02-04T21:33:35.217Z,61.38
2019-02-04T21:36:03.407Z,61.27
2019-02-04T21:38:31.620Z,61.46
2019-02-04T21:40:59.920Z,61.94
2019-02-04T21:43:28.094Z,61.78
2019-02-04T21:45:56.288Z,61.94
2019-02-04T21:48:24.492Z,61.91
2019-02-04T21:50:52.668Z,62.41
2019-02-04T21:53:20.861Z,62.65
2019-02-04T21:55:49.053Z,62.52
2019-02-04T21:58:17.256Z,62.86
2019-02-04T22:00:45.446Z,62.67
2019-02-04T22:03:13.658Z,62.64
2019-02-04T22:05:41.851Z,62.69
2019-02-04T22:08:10.047Z,62.66
2019-02-04T22:10:39.960Z,62.63
2019-02-04T22:13:08.144Z,62.55
2019-02-04T22:15:38.062Z,62.71
2019-02-04T22:18:06.254Z,62.62
2019-02-04T22:20:36.194Z,62.71
2019-02-04T22:23:04.448Z,62.89
2019-02-04T22:25:32.710Z,62.92
2019-02-04T22:28:00.900Z,62.99
2019-02-04T22:31:09.208Z,62.96
2019-02-04T22:33:37.385Z,63.29
2019-02-04T22:36:05.588Z,63.88
2019-02-04T22:38:53.150Z,64.01
2019-02-04T22:41:21.332Z,64.29
2019-02-04T22:43:51.248Z,64.40
2019-02-04T22:46:19.442Z,64.35
2019-02-04T22:49:06.758Z,64.83
2019-02-04T22:51:34.976Z,65.33
2019-02-04T22:54:03.136Z,65.77
2019-02-04T22:56:31.332Z,66.13
2019-02-04T22:58:59.621Z,66.26
2019-02-04T23:01:47.318Z,66.52
2019-02-04T23:04:15.512Z,66.31
2019-02-04T23:06:45.422Z,66.83
2019-02-04T23:09:13.639Z,66.90
2019-02-04T23:14:30.724Z,67.63
2019-02-04T23:17:00.625Z,68.33
2019-02-04T23:19:28.833Z,68.39
2019-02-04T23:21:57.013Z,68.66
2019-02-04T23:24:25.215Z,68.84
2019-02-04T23:27:12.515Z,69.22
2019-02-04T23:29:40.715Z,69.07
2019-02-04T23:32:08.903Z,69.80
2019-02-04T23:34:37.080Z,69.85
2019-02-04T23:37:05.281Z,70.42
2019-02-04T23:39:33.461Z,70.54
2019-02-04T23:42:20.773Z,70.41
2019-02-04T23:44:48.987Z,70.28
2019-02-04T23:47:17.177Z,70.23
2019-02-04T23:49:45.433Z,70.06
2019-02-04T23:52:13.649Z,70.15
2019-02-04T23:54:41.836Z,70.35
2019-02-04T23:57:11.747Z,70.14
2019-02-04T23:59:39.940Z,70.12
